createdAt,value
2023-05-24T00:00:20.252Z,30.6
2023-05-24T00:01:22.112Z,30.6
2023-05-24T00:02:24.396Z,30.6
2023-05-24T00:03:26.792Z,30.6
2023-05-24T00:04:28.851Z,30.6
2023-05-24T00:05:30.844Z,30.6
2023-05-24T00:06:33.083Z,30.6
2023-05-24T00:07:35.034Z,30.7
2023-05-24T00:08:36.904Z,30.7
2023-05-24T00:09:38.774Z,30.7
2023-05-24T00:10:41.214Z,30.7
2023-05-24T00:11:43.855Z,30.7
2023-05-24T00:12:45.854Z,30.7
2023-05-24T00:13:47.899Z,30.7
2023-05-24T00:14:49.738Z,30.7
2023-05-24T00:15:51.584Z,30.7
2023-05-24T00:16:53.592Z,30.8
2023-05-24T00:17:56.063Z,30.8
2023-05-24T00:18:58.136Z,30.8
2023-05-24T00:20:00.169Z,30.8
2023-05-24T00:21:02.351Z,30.9
2023-05-24T00:22:04.012Z,30.8
2023-05-24T00:23:05.892Z,30.8
2023-05-24T00:24:07.714Z,30.8
2023-05-24T00:25:09.484Z,30.8
2023-05-24T00:26:11.392Z,30.8
2023-05-24T00:27:13.138Z,30.8
2023-05-24T00:28:15.102Z,30.8
2023-05-24T00:29:16.874Z,30.8
2023-05-24T00:30:18.710Z,30.8
2023-05-24T00:31:20.912Z,30.9
2023-05-24T00:32:23.122Z,30.9
2023-05-24T00:33:25.093Z,30.9
2023-05-24T00:34:26.940Z,30.9
2023-05-24T00:35:28.989Z,30.9
2023-05-24T00:36:30.743Z,30.9
2023-05-24T00:37:32.790Z,30.9
2023-05-24T00:38:34.566Z,30.9
2023-05-24T00:39:36.436Z,30.9
2023-05-24T00:40:38.277Z,30.9
2023-05-24T00:41:40.098Z,30.9
2023-05-24T00:42:41.936Z,30.9
2023-05-24T00:43:43.793Z,31
2023-05-24T00:44:45.644Z,31
2023-05-24T00:45:47.538Z,31
2023-05-24T00:46:49.437Z,31
2023-05-24T00:47:51.392Z,31
2023-05-24T00:48:53.444Z,31
2023-05-24T00:49:55.295Z,31
2023-05-24T00:50:57.143Z,31
2023-05-24T00:51:59.093Z,31.1
2023-05-24T00:53:03.529Z,31.1
2023-05-24T00:54:05.168Z,31.1
2023-05-24T00:55:07.018Z,31.1
2023-05-24T00:56:09.598Z,31.1
2023-05-24T00:57:11.672Z,31.1
2023-05-24T00:58:13.469Z,31.1
2023-05-24T00:59:15.293Z,31.2
2023-05-24T01:00:16.986Z,31.2
2023-05-24T01:01:18.954Z,31.2
2023-05-24T01:02:21.610Z,31.2
2023-05-24T01:03:23.752Z,31.2
2023-05-24T01:04:25.832Z,31.2
2023-05-24T01:05:27.673Z,31.2
2023-05-24T01:06:29.526Z,31.2
2023-05-24T01:07:31.337Z,31.2
2023-05-24T01:08:33.313Z,31.3
2023-05-24T01:09:35.323Z,31.3
2023-05-24T01:10:37.225Z,31.3
2023-05-24T01:11:39.482Z,31.3
2023-05-24T01:12:41.352Z,31.3
2023-05-24T01:13:43.176Z,31.3
2023-05-24T01:14:48.113Z,31.3
2023-05-24T01:15:49.972Z,31.3
2023-05-24T01:16:51.866Z,31.3
2023-05-24T01:17:53.894Z,31.3
2023-05-24T01:18:55.907Z,31.3
2023-05-24T01:19:57.988Z,31.3
2023-05-24T01:20:59.819Z,31.4
2023-05-24T01:22:01.657Z,31.4
2023-05-24T01:23:03.505Z,31.4
2023-05-24T01:24:05.480Z,31.4
2023-05-24T01:25:07.941Z,31.4
2023-05-24T01:26:09.765Z,31.4
2023-05-24T01:27:11.415Z,31.4
2023-05-24T01:28:13.175Z,31.4
2023-05-24T01:29:15.128Z,31.5
2023-05-24T01:30:16.967Z,31.5
2023-05-24T01:31:18.869Z,31.5
2023-05-24T01:32:20.851Z,31.5
2023-05-24T01:33:22.931Z,31.5
2023-05-24T01:34:24.826Z,31.5
2023-05-24T01:35:26.409Z,31.5
2023-05-24T01:36:28.054Z,31.5
2023-05-24T01:37:29.716Z,31.5
2023-05-24T01:38:31.394Z,31.5
2023-05-24T01:39:33.026Z,31.5
2023-05-24T01:40:34.783Z,31.5
2023-05-24T01:41:36.617Z,31.5
2023-05-24T01:42:38.775Z,31.6
2023-05-24T01:43:40.531Z,31.6
2023-05-24T01:44:42.262Z,31.6
2023-05-24T01:45:43.970Z,31.6
2023-05-24T01:46:45.659Z,31.6
2023-05-24T01:47:47.560Z,31.6
2023-05-24T01:48:49.418Z,31.6
2023-05-24T01:49:51.109Z,31.6
2023-05-24T01:50:52.945Z,31.6
2023-05-24T01:51:54.817Z,31.6
2023-05-24T01:52:56.643Z,31.6
2023-05-24T01:53:58.603Z,31.6
2023-05-24T01:55:00.454Z,31.7
2023-05-24T01:56:02.297Z,31.7
2023-05-24T01:57:04.156Z,31.7
2023-05-24T01:58:06.137Z,31.7
2023-05-24T01:59:08.571Z,31.7
2023-05-24T02:00:10.437Z,31.7
2023-05-24T02:01:12.404Z,31.7
2023-05-24T02:02:14.586Z,31.7
2023-05-24T02:03:17.040Z,31.7
2023-05-24T02:04:18.943Z,31.7
2023-05-24T02:05:20.600Z,31.8
2023-05-24T02:06:22.341Z,31.8
2023-05-24T02:07:24.399Z,31.8
2023-05-24T02:08:26.665Z,31.8
2023-05-24T02:09:28.663Z,31.8
2023-05-24T02:10:30.580Z,31.8
2023-05-24T02:11:32.406Z,31.8
2023-05-24T02:12:34.256Z,31.8
2023-05-24T02:13:36.139Z,31.8
2023-05-24T02:14:37.767Z,31.8
2023-05-24T02:15:39.597Z,31.8
2023-05-24T02:16:41.357Z,31.8
2023-05-24T02:17:43.370Z,31.8
2023-05-24T02:18:45.252Z,31.8
2023-05-24T02:19:47.687Z,31.8
2023-05-24T02:20:49.843Z,31.8
2023-05-24T02:21:51.524Z,31.8
2023-05-24T02:22:53.382Z,31.8
2023-05-24T02:23:55.228Z,31.9
2023-05-24T02:24:57.080Z,31.8
2023-05-24T02:25:58.816Z,31.8
2023-05-24T02:27:00.648Z,31.8
2023-05-24T02:28:02.339Z,31.8
2023-05-24T02:29:04.127Z,31.8
2023-05-24T02:30:05.932Z,31.9
2023-05-24T02:31:08.009Z,31.9
2023-05-24T02:32:10.015Z,31.9
2023-05-24T02:33:12.040Z,31.9
2023-05-24T02:34:14.326Z,31.9
2023-05-24T02:35:16.096Z,31.9
2023-05-24T02:36:18.047Z,31.9
2023-05-24T02:37:20.001Z,31.9
2023-05-24T02:38:21.961Z,31.9
2023-05-24T02:39:23.796Z,31.9
2023-05-24T02:40:25.771Z,31.9
2023-05-24T02:41:27.681Z,32
2023-05-24T02:42:29.885Z,32
2023-05-24T02:43:31.705Z,32
2023-05-24T02:44:33.565Z,32
2023-05-24T02:45:35.231Z,31.9
2023-05-24T02:46:37.240Z,32
2023-05-24T02:47:39.557Z,32
2023-05-24T02:48:41.466Z,32
2023-05-24T02:49:46.273Z,32
2023-05-24T02:50:48.058Z,32
2023-05-24T02:51:50.106Z,32
2023-05-24T02:52:52.042Z,32.1
2023-05-24T02:53:54.509Z,32.1
2023-05-24T02:54:56.882Z,32.1
2023-05-24T02:55:58.722Z,32.1
2023-05-24T02:57:00.390Z,32
2023-05-24T02:58:02.216Z,32
2023-05-24T02:59:04.068Z,32.1
2023-05-24T03:00:06.048Z,32.1
2023-05-24T03:01:07.988Z,32.1
2023-05-24T03:02:09.935Z,32.1
2023-05-24T03:03:11.924Z,32.1
2023-05-24T03:04:14.005Z,32.1
2023-05-24T03:05:15.797Z,32.1
2023-05-24T03:06:17.672Z,32.1
2023-05-24T03:07:19.305Z,32.1
2023-05-24T03:08:20.925Z,32.1
2023-05-24T03:09:22.671Z,32.1
2023-05-24T03:10:24.629Z,32.1
2023-05-24T03:11:26.469Z,32.1
2023-05-24T03:12:28.072Z,32.1
2023-05-24T03:13:29.685Z,32.1
2023-05-24T03:14:31.334Z,32.1
2023-05-24T03:15:32.972Z,32.1
2023-05-24T03:16:35.117Z,32.1
2023-05-24T03:17:37.608Z,32.1
2023-05-24T03:18:39.591Z,32.1
2023-05-24T03:19:41.365Z,32.1
2023-05-24T03:20:43.761Z,32.1
2023-05-24T03:21:46.628Z,32
2023-05-24T03:22:48.461Z,32.1
2023-05-24T03:23:50.430Z,32.1
2023-05-24T03:24:52.364Z,32.1
2023-05-24T03:25:54.307Z,32.1
2023-05-24T03:26:56.275Z,32.1
2023-05-24T03:27:58.209Z,32.1
2023-05-24T03:29:00.382Z,32
2023-05-24T03:30:02.363Z,32
2023-05-24T03:31:04.222Z,32
2023-05-24T03:32:06.377Z,32
2023-05-24T03:33:08.529Z,31.9
2023-05-24T03:34:10.504Z,31.9
2023-05-24T03:35:12.360Z,31.9
2023-05-24T03:36:14.059Z,31.9
2023-05-24T03:37:15.902Z,31.9
2023-05-24T03:38:17.716Z,31.8
2023-05-24T03:39:19.850Z,31.8
2023-05-24T03:40:21.856Z,31.8
2023-05-24T03:41:23.511Z,31.8
2023-05-24T03:42:25.258Z,31.7
2023-05-24T03:43:30.028Z,31.7
2023-05-24T03:44:31.750Z,31.7
2023-05-24T03:45:40.339Z,31.6
2023-05-24T03:46:42.534Z,31.6
2023-05-24T03:47:45.062Z,31.6
2023-05-24T03:48:47.106Z,31.5
2023-05-24T03:49:49.003Z,31.4
2023-05-24T03:50:50.907Z,31.2
2023-05-24T03:51:52.662Z,30.8
2023-05-24T03:52:54.599Z,30.6
2023-05-24T03:53:56.554Z,30.5
2023-05-24T03:54:58.375Z,30.4
2023-05-24T03:55:59.995Z,30.2
2023-05-24T03:57:01.653Z,30.2
2023-05-24T03:58:03.557Z,30.1
2023-05-24T03:59:05.411Z,29.9
2023-05-24T04:00:07.904Z,29.8
2023-05-24T04:01:29.569Z,29.9
2023-05-24T04:02:37.018Z,29.6
2023-05-24T04:03:39.213Z,29.5
2023-05-24T04:04:41.860Z,29.5
2023-05-24T04:05:43.631Z,29.4
2023-05-24T04:06:45.428Z,29.2
2023-05-24T04:07:47.230Z,29.3
2023-05-24T04:08:49.297Z,29.3
2023-05-24T04:09:51.143Z,29.4
2023-05-24T04:10:52.993Z,29.6
2023-05-24T04:11:54.840Z,29.6
2023-05-24T04:12:56.691Z,29.6
2023-05-24T04:13:58.742Z,29.6
2023-05-24T04:15:00.593Z,29.7
2023-05-24T04:16:02.431Z,29.7
2023-05-24T04:17:04.640Z,29.5
2023-05-24T04:18:07.220Z,29.5
2023-05-24T04:19:09.384Z,29.4
2023-05-24T04:20:11.340Z,29.4
2023-05-24T04:21:13.435Z,29.5
2023-05-24T04:22:15.297Z,29.7
2023-05-24T04:23:17.121Z,30
2023-05-24T04:24:19.091Z,30.2
2023-05-24T04:25:20.993Z,30.4
2023-05-24T04:26:22.786Z,30.5
2023-05-24T04:27:24.638Z,30.6
2023-05-24T04:28:26.590Z,30.6
2023-05-24T04:29:28.425Z,30.7
2023-05-24T04:30:30.381Z,30.8
2023-05-24T04:31:32.459Z,30.9
2023-05-24T04:32:34.510Z,31
2023-05-24T04:33:36.379Z,31
2023-05-24T04:34:38.023Z,31
2023-05-24T04:35:39.831Z,31
2023-05-24T04:36:41.790Z,31.1
2023-05-24T04:37:43.630Z,31.1
2023-05-24T04:38:45.699Z,31.1
2023-05-24T04:39:48.157Z,31.1
2023-05-24T04:40:50.027Z,31.1
2023-05-24T04:41:51.870Z,31.1
2023-05-24T04:42:53.714Z,31.1
2023-05-24T04:43:55.562Z,31.1
2023-05-24T04:44:57.417Z,31.1
2023-05-24T04:45:59.136Z,31
2023-05-24T04:47:00.977Z,31
2023-05-24T04:48:03.301Z,31
2023-05-24T04:49:05.631Z,31
2023-05-24T04:50:07.796Z,30.8
2023-05-24T04:51:09.851Z,30.8
2023-05-24T04:52:11.797Z,30.8
2023-05-24T04:53:14.140Z,30.8
2023-05-24T04:54:16.015Z,30.7
2023-05-24T04:55:18.071Z,30.6
2023-05-24T04:56:20.322Z,30.6
2023-05-24T04:57:22.169Z,30.6
2023-05-24T04:58:23.813Z,30.5
2023-05-24T04:59:25.516Z,30.5
2023-05-24T05:00:27.338Z,30.5
2023-05-24T05:01:29.189Z,30.5
2023-05-24T05:02:31.247Z,30.6
2023-05-24T05:03:33.322Z,30.6
2023-05-24T05:04:35.581Z,30.8
2023-05-24T05:05:37.478Z,30.8
2023-05-24T05:06:39.449Z,30.9
2023-05-24T05:07:41.287Z,30.9
2023-05-24T05:08:43.138Z,31
2023-05-24T05:09:45.182Z,30.9
2023-05-24T05:10:47.147Z,30.6
2023-05-24T05:11:48.767Z,30.7
2023-05-24T05:12:50.555Z,30.8
2023-05-24T05:13:52.553Z,30.8
2023-05-24T05:14:54.295Z,30.9
2023-05-24T05:15:56.610Z,30.9
2023-05-24T05:16:58.588Z,31
2023-05-24T05:18:00.759Z,31
2023-05-24T05:19:02.871Z,31
2023-05-24T05:20:04.850Z,31
2023-05-24T05:21:06.881Z,30.9
2023-05-24T05:22:08.925Z,31
2023-05-24T05:23:10.770Z,30.9
2023-05-24T05:24:12.516Z,30.9
2023-05-24T05:25:14.322Z,30.9
2023-05-24T05:26:16.039Z,30.9
2023-05-24T05:27:17.669Z,30.9
2023-05-24T05:28:19.301Z,30.8
2023-05-24T05:29:24.698Z,30.8
2023-05-24T05:30:27.418Z,30.8
2023-05-24T05:31:29.158Z,30.8
2023-05-24T05:32:31.183Z,30.9
2023-05-24T05:33:33.671Z,30.8
2023-05-24T05:34:35.721Z,30.9
2023-05-24T05:35:37.731Z,30.8
2023-05-24T05:36:39.743Z,30.8
2023-05-24T05:37:41.715Z,30.7
2023-05-24T05:38:43.572Z,30.7
2023-05-24T05:39:45.184Z,30.7
2023-05-24T05:40:47.152Z,30.7
2023-05-24T05:41:49.486Z,30.7
2023-05-24T05:42:51.361Z,30.6
2023-05-24T05:43:53.302Z,30.6
2023-05-24T05:44:55.136Z,30.6
2023-05-24T05:45:56.912Z,30.6
2023-05-24T05:46:58.650Z,30.6
2023-05-24T05:48:00.658Z,30.5
2023-05-24T05:49:02.661Z,30.5
2023-05-24T05:50:04.424Z,30.5
2023-05-24T05:51:06.307Z,30.5
2023-05-24T05:52:08.241Z,30.4
2023-05-24T05:53:10.578Z,30.3
2023-05-24T05:54:12.193Z,30.2
2023-05-24T05:55:13.967Z,30.2
2023-05-24T05:56:15.614Z,30.1
2023-05-24T05:57:17.562Z,30
2023-05-24T05:58:19.433Z,30.1
2023-05-24T05:59:21.367Z,30
2023-05-24T06:00:23.439Z,30
2023-05-24T06:01:25.227Z,29.9
2023-05-24T06:02:27.384Z,29.9
2023-05-24T06:03:29.934Z,29.8
2023-05-24T06:04:32.761Z,29.7
2023-05-24T06:05:34.824Z,29.6
2023-05-24T06:06:36.702Z,29.6
2023-05-24T06:07:38.526Z,29.6
2023-05-24T06:08:40.577Z,29.5
2023-05-24T06:09:42.529Z,29.5
2023-05-24T06:10:44.962Z,29.5
2023-05-24T06:11:47.035Z,29.5
2023-05-24T06:12:49.184Z,29.5
2023-05-24T06:13:51.168Z,29.4
2023-05-24T06:14:53.102Z,29.3
2023-05-24T06:15:54.983Z,29.3
2023-05-24T06:17:00.433Z,29.3
2023-05-24T06:18:02.638Z,29.3
2023-05-24T06:19:06.871Z,29.3
2023-05-24T06:20:08.737Z,29.3
2023-05-24T06:21:10.770Z,29.3
2023-05-24T06:22:12.528Z,29.3
2023-05-24T06:23:14.575Z,29.3
2023-05-24T06:24:16.428Z,29.3
2023-05-24T06:25:18.272Z,29.3
2023-05-24T06:26:20.121Z,29.3
2023-05-24T06:27:22.176Z,29.2
2023-05-24T06:28:24.221Z,29.2
2023-05-24T06:29:26.089Z,29.2
2023-05-24T06:30:28.390Z,29.2
2023-05-24T06:31:30.963Z,29.3
2023-05-24T06:32:32.924Z,29.3
2023-05-24T06:33:38.378Z,29.3
2023-05-24T06:34:53.859Z,29.2
2023-05-24T06:35:55.696Z,29.2
2023-05-24T06:36:57.519Z,29.2
2023-05-24T06:37:59.266Z,29.2
2023-05-24T06:39:00.993Z,29.2
2023-05-24T06:40:02.808Z,29.3
2023-05-24T06:41:04.563Z,29.3
2023-05-24T06:42:06.242Z,29.4
2023-05-24T06:43:07.938Z,29.4
2023-05-24T06:44:09.919Z,29.4
2023-05-24T06:45:11.853Z,29.3
2023-05-24T06:46:13.713Z,29.4
2023-05-24T06:47:15.829Z,29.4
2023-05-24T06:48:18.494Z,29.4
2023-05-24T06:49:20.588Z,29.5
2023-05-24T06:50:22.367Z,29.4
2023-05-24T06:51:24.047Z,29.4
2023-05-24T06:52:25.755Z,29.4
2023-05-24T06:53:28.115Z,29.4
2023-05-24T06:54:31.050Z,29.4
2023-05-24T06:55:32.914Z,29.4
2023-05-24T06:56:34.873Z,29.4
2023-05-24T06:57:36.713Z,29.5
2023-05-24T06:58:38.490Z,29.4
2023-05-24T06:59:40.132Z,29.5
2023-05-24T07:00:42.224Z,29.5
2023-05-24T07:01:45.225Z,29.5
2023-05-24T07:02:47.445Z,29.5
2023-05-24T07:03:49.268Z,29.6
2023-05-24T07:04:51.152Z,29.5
2023-05-24T07:05:52.962Z,29.6
2023-05-24T07:06:54.605Z,29.6
2023-05-24T07:07:56.335Z,29.6
2023-05-24T07:08:58.981Z,29.5
2023-05-24T07:10:00.863Z,29.6
2023-05-24T07:11:03.017Z,29.5
2023-05-24T07:12:08.967Z,29.5
2023-05-24T07:13:11.225Z,29.6
2023-05-24T07:14:13.369Z,29.6
2023-05-24T07:15:15.425Z,29.6
2023-05-24T07:16:17.201Z,29.6
2023-05-24T07:17:19.005Z,29.6
2023-05-24T07:18:21.083Z,29.6
2023-05-24T07:19:22.907Z,29.7
2023-05-24T07:20:24.945Z,29.7
2023-05-24T07:21:27.254Z,29.6
2023-05-24T07:22:28.954Z,29.6
2023-05-24T07:23:30.845Z,29.7
2023-05-24T07:24:32.815Z,29.6
2023-05-24T07:25:34.755Z,29.7
2023-05-24T07:26:36.731Z,29.7
2023-05-24T07:27:38.352Z,29.7
2023-05-24T07:28:40.076Z,29.6
2023-05-24T07:29:41.948Z,29.7
2023-05-24T07:30:43.906Z,29.7
2023-05-24T07:31:45.885Z,29.8
2023-05-24T07:32:47.978Z,29.8
2023-05-24T07:33:50.365Z,29.7
2023-05-24T07:34:52.032Z,29.7
2023-05-24T07:35:53.629Z,29.7
2023-05-24T07:36:55.239Z,29.8
2023-05-24T07:37:56.893Z,29.7
2023-05-24T07:38:58.706Z,29.7
2023-05-24T07:40:00.746Z,29.7
2023-05-24T07:41:03.063Z,29.7
2023-05-24T07:42:04.979Z,29.7
2023-05-24T07:43:06.681Z,29.7
2023-05-24T07:44:08.449Z,29.7
2023-05-24T07:45:10.180Z,29.7
2023-05-24T07:46:12.795Z,29.7
2023-05-24T07:47:14.743Z,29.8
2023-05-24T07:48:16.813Z,29.7
2023-05-24T07:49:19.220Z,29.8
2023-05-24T07:50:21.286Z,29.9
2023-05-24T07:51:23.265Z,29.9
2023-05-24T07:52:25.100Z,30
2023-05-24T07:53:26.847Z,29.9
2023-05-24T07:54:28.516Z,30
2023-05-24T07:55:30.325Z,29.9
2023-05-24T07:56:32.197Z,29.9
2023-05-24T07:57:34.113Z,30
2023-05-24T07:58:35.912Z,30
2023-05-24T07:59:37.725Z,30
2023-05-24T08:00:39.769Z,29.9
2023-05-24T08:01:41.425Z,29.9
2023-05-24T08:02:43.655Z,30
2023-05-24T08:03:46.066Z,29.9
2023-05-24T08:04:48.243Z,30
2023-05-24T08:05:50.105Z,30
2023-05-24T08:06:52.016Z,30
2023-05-24T08:07:54.123Z,30
2023-05-24T08:08:55.941Z,30.1
2023-05-24T08:09:57.617Z,30
2023-05-24T08:10:59.708Z,30
2023-05-24T08:12:01.605Z,29.8
2023-05-24T08:13:03.492Z,29.8
2023-05-24T08:14:05.319Z,29.7
2023-05-24T08:15:07.128Z,29.6
2023-05-24T08:16:09.117Z,29.6
2023-05-24T08:17:10.824Z,29.6
2023-05-24T08:18:12.662Z,29.5
2023-05-24T08:19:14.524Z,29.5
2023-05-24T08:20:16.408Z,29.5
2023-05-24T08:21:18.648Z,29.4
2023-05-24T08:22:20.479Z,29.4
2023-05-24T08:23:22.070Z,29.3
2023-05-24T08:24:23.760Z,29.2
2023-05-24T08:25:25.509Z,29.1
2023-05-24T08:26:27.328Z,29.1
2023-05-24T08:27:29.050Z,29.2
2023-05-24T08:28:31.576Z,29.2
2023-05-24T08:29:33.797Z,29.2
2023-05-24T08:30:35.838Z,29.1
2023-05-24T08:31:38.150Z,29
2023-05-24T08:32:41.430Z,29
2023-05-24T08:33:43.280Z,29
2023-05-24T08:34:44.954Z,29
2023-05-24T08:35:46.779Z,29
2023-05-24T08:36:48.673Z,29
2023-05-24T08:37:50.394Z,29
2023-05-24T08:38:52.344Z,28.7
2023-05-24T08:39:54.119Z,28.5
2023-05-24T08:40:55.966Z,28.5
2023-05-24T08:42:10.286Z,28.3
2023-05-24T08:43:12.862Z,28.3
2023-05-24T08:44:14.920Z,28.5
2023-05-24T08:45:16.771Z,28.4
2023-05-24T08:46:18.687Z,28.5
2023-05-24T08:47:20.759Z,28.5
2023-05-24T08:48:22.694Z,28.5
2023-05-24T08:49:24.878Z,28.6
2023-05-24T08:50:26.704Z,28.4
2023-05-24T08:51:28.309Z,28.5
2023-05-24T08:52:30.056Z,28.4
2023-05-24T08:53:31.878Z,28.2
2023-05-24T08:54:33.704Z,28.2
2023-05-24T08:55:35.354Z,28.2
2023-05-24T08:56:37.074Z,28.3
2023-05-24T08:57:38.802Z,28.4
2023-05-24T08:58:41.679Z,28.3
2023-05-24T08:59:44.017Z,28.4
2023-05-24T09:00:45.759Z,28.4
2023-05-24T09:01:48.052Z,28.4
2023-05-24T09:02:50.441Z,28.3
2023-05-24T09:03:52.559Z,28.3
2023-05-24T09:04:54.587Z,28.1
2023-05-24T09:05:56.264Z,28.1
2023-05-24T09:06:57.912Z,28.3
2023-05-24T09:07:59.588Z,28.3
2023-05-24T09:09:01.296Z,28.1
2023-05-24T09:10:03.176Z,28.1
2023-05-24T09:11:04.823Z,28.2
2023-05-24T09:12:06.644Z,28.3
2023-05-24T09:13:08.735Z,28.1
2023-05-24T09:14:10.738Z,28.1
2023-05-24T09:15:12.694Z,27.9
2023-05-24T09:16:14.879Z,28.1
2023-05-24T09:17:16.678Z,28
2023-05-24T09:18:18.467Z,28
2023-05-24T09:19:20.502Z,27.9
2023-05-24T09:20:22.541Z,27.8
2023-05-24T09:21:24.602Z,27.8
2023-05-24T09:22:26.442Z,27.8
2023-05-24T09:23:28.121Z,27.9
2023-05-24T09:24:29.847Z,27.8
2023-05-24T09:25:31.699Z,28.2
2023-05-24T09:26:33.657Z,27.8
2023-05-24T09:27:35.353Z,27.9
2023-05-24T09:28:37.617Z,28
2023-05-24T09:29:39.605Z,28
2023-05-24T09:30:42.506Z,28.2
2023-05-24T09:31:45.355Z,28
2023-05-24T09:32:47.130Z,27.8
2023-05-24T09:33:49.050Z,27.4
2023-05-24T09:34:50.869Z,27.8
2023-05-24T09:35:52.477Z,27.9
2023-05-24T09:36:54.119Z,27.8
2023-05-24T09:37:55.829Z,27.9
2023-05-24T09:38:57.592Z,27.9
2023-05-24T09:39:59.475Z,27.5
2023-05-24T09:41:01.341Z,27.8
2023-05-24T09:42:03.047Z,27.9
2023-05-24T09:43:04.906Z,27.8
2023-05-24T09:44:06.523Z,27.7
2023-05-24T09:45:08.263Z,27.4
2023-05-24T09:46:10.021Z,27.1
2023-05-24T09:47:12.451Z,27.5
2023-05-24T09:48:14.736Z,27.7
2023-05-24T09:49:16.897Z,27.6
2023-05-24T09:50:18.865Z,27.6
2023-05-24T09:51:20.821Z,27.3
2023-05-24T09:52:22.863Z,27.1
2023-05-24T09:53:24.937Z,27.3
2023-05-24T09:54:27.068Z,27.2
2023-05-24T09:55:29.857Z,27.3
2023-05-24T09:56:32.320Z,26.8
2023-05-24T09:57:34.124Z,27
2023-05-24T09:58:35.855Z,27.1
2023-05-24T09:59:38.733Z,27.3
2023-05-24T10:00:41.884Z,27.4
2023-05-24T10:01:45.902Z,27.5
2023-05-24T10:02:54.241Z,27.4
2023-05-24T10:03:56.658Z,27.1
2023-05-24T10:04:59.399Z,27.1
2023-05-24T10:06:01.569Z,27.1
2023-05-24T10:07:03.357Z,27.1
2023-05-24T10:08:05.058Z,27.1
2023-05-24T10:09:07.013Z,27
2023-05-24T10:10:08.956Z,26.8
2023-05-24T10:11:10.689Z,26.6
2023-05-24T10:12:12.362Z,26.9
2023-05-24T10:13:14.200Z,27
2023-05-24T10:14:16.055Z,27
2023-05-24T10:15:17.964Z,26.7
2023-05-24T10:16:19.875Z,26.8
2023-05-24T10:17:22.136Z,26.9
2023-05-24T10:18:24.077Z,26.7
2023-05-24T10:19:26.009Z,26.9
2023-05-24T10:20:27.904Z,26.8
2023-05-24T10:21:29.850Z,26.7
2023-05-24T10:22:31.767Z,26.8
2023-05-24T10:23:33.636Z,26.8
2023-05-24T10:24:35.360Z,26.8
2023-05-24T10:25:37.119Z,26.8
2023-05-24T10:26:38.963Z,26.8
2023-05-24T10:27:40.800Z,26.6
2023-05-24T10:28:42.706Z,26.7
2023-05-24T10:29:44.414Z,26.7
2023-05-24T10:30:47.263Z,26.6
2023-05-24T10:31:50.093Z,26.6
2023-05-24T10:32:52.220Z,26.5
2023-05-24T10:34:07.517Z,26.6
2023-05-24T10:35:10.866Z,26.6
2023-05-24T10:36:13.113Z,26.4
2023-05-24T10:37:15.280Z,26.4
2023-05-24T10:38:17.452Z,26.5
2023-05-24T10:39:19.328Z,26.4
2023-05-24T10:40:21.566Z,26.4
2023-05-24T10:41:23.544Z,26.4
2023-05-24T10:42:25.231Z,26.5
2023-05-24T10:43:26.867Z,26.5
2023-05-24T10:44:28.576Z,26.4
2023-05-24T10:45:30.387Z,26.3
2023-05-24T10:46:32.422Z,26.5
2023-05-24T10:47:38.946Z,26.3
2023-05-24T10:48:41.369Z,26.3
2023-05-24T10:49:43.179Z,26.3
2023-05-24T10:50:45.547Z,26.2
2023-05-24T10:51:47.537Z,26.2
2023-05-24T10:52:49.503Z,26.3
2023-05-24T10:53:51.341Z,26.3
2023-05-24T10:55:04.945Z,26.3
2023-05-24T10:56:07.424Z,26.2
2023-05-24T10:57:09.218Z,26.3
2023-05-24T10:58:10.918Z,26.2
2023-05-24T10:59:12.738Z,26.2
2023-05-24T11:00:33.654Z,26.2
2023-05-24T11:01:38.158Z,26.1
2023-05-24T11:02:40.859Z,26.2
2023-05-24T11:03:42.585Z,26.1
2023-05-24T11:04:44.466Z,26.1
2023-05-24T11:05:47.096Z,26
2023-05-24T11:06:49.181Z,26
2023-05-24T11:07:51.203Z,26.1
2023-05-24T11:08:52.893Z,26.1
2023-05-24T11:09:54.901Z,25.9
2023-05-24T11:10:56.552Z,25.9
2023-05-24T11:11:58.259Z,25.9
2023-05-24T11:12:59.923Z,25.8
2023-05-24T11:14:01.783Z,26
2023-05-24T11:15:03.634Z,25.9
2023-05-24T11:16:05.876Z,25.9
2023-05-24T11:17:07.917Z,25.8
2023-05-24T11:18:10.008Z,25.8
2023-05-24T11:19:12.089Z,25.8
2023-05-24T11:20:14.057Z,25.8
2023-05-24T11:21:16.107Z,25.8
2023-05-24T11:22:17.975Z,25.8
2023-05-24T11:23:19.792Z,25.7
2023-05-24T11:24:21.544Z,25.8
2023-05-24T11:25:24.113Z,25.8
2023-05-24T11:26:25.869Z,25.8
2023-05-24T11:27:27.680Z,25.7
2023-05-24T11:28:29.485Z,25.7
2023-05-24T11:29:31.439Z,25.7
2023-05-24T11:30:33.383Z,25.7
2023-05-24T11:31:41.063Z,25.7
2023-05-24T11:32:46.648Z,25.7
2023-05-24T11:33:48.639Z,25.6
2023-05-24T11:34:50.490Z,25.6
2023-05-24T11:35:52.559Z,25.6
2023-05-24T11:36:54.486Z,25.7
2023-05-24T11:37:56.343Z,25.6
2023-05-24T11:38:58.121Z,25.6
2023-05-24T11:39:59.840Z,25.6
2023-05-24T11:41:01.575Z,25.5
2023-05-24T11:42:03.404Z,25.5
2023-05-24T11:43:05.133Z,25.5
2023-05-24T11:44:06.756Z,25.6
2023-05-24T11:45:08.384Z,25.6
2023-05-24T11:46:10.254Z,25.5
2023-05-24T11:47:12.181Z,25.5
2023-05-24T11:48:14.608Z,25.5
2023-05-24T11:49:16.827Z,25.4
2023-05-24T11:50:18.661Z,25.5
2023-05-24T11:51:20.608Z,25.4
2023-05-24T11:52:22.454Z,25.4
2023-05-24T11:53:24.313Z,25.4
2023-05-24T11:54:26.273Z,25.4
2023-05-24T11:55:28.217Z,25.4
2023-05-24T11:56:34.002Z,25.4
2023-05-24T11:57:36.135Z,25.3
2023-05-24T11:58:37.984Z,25.4
2023-05-24T11:59:39.741Z,25.3
2023-05-24T12:00:42.088Z,25.4
2023-05-24T12:01:44.824Z,25.3
2023-05-24T12:02:46.777Z,25.3
2023-05-24T12:03:49.442Z,25.3
2023-05-24T12:04:52.049Z,25.2
2023-05-24T12:05:53.995Z,25.2
2023-05-24T12:06:55.921Z,25.2
2023-05-24T12:07:57.651Z,25.3
2023-05-24T12:08:59.629Z,25.2
2023-05-24T12:10:01.610Z,25.2
2023-05-24T12:11:03.538Z,25.2
2023-05-24T12:12:05.392Z,25.2
2023-05-24T12:13:07.246Z,25.2
2023-05-24T12:14:09.090Z,25.2
2023-05-24T12:15:11.193Z,25.2
2023-05-24T12:16:13.034Z,25.2
2023-05-24T12:17:15.050Z,25.2
2023-05-24T12:18:16.990Z,25.2
2023-05-24T12:19:33.861Z,25.3
2023-05-24T12:20:36.807Z,25.3
2023-05-24T12:21:39.044Z,25.2
2023-05-24T12:22:40.866Z,25.2
2023-05-24T12:23:42.504Z,25.2
2023-05-24T12:24:44.431Z,25.2
2023-05-24T12:25:46.243Z,25.2
2023-05-24T12:26:48.182Z,25.2
2023-05-24T12:27:52.935Z,25.2
2023-05-24T12:28:56.316Z,25.2
2023-05-24T12:29:58.337Z,25.1
2023-05-24T12:31:00.242Z,25.1
2023-05-24T12:32:02.471Z,25.1
2023-05-24T12:33:04.558Z,25.1
2023-05-24T12:34:06.572Z,25
2023-05-24T12:35:08.456Z,25
2023-05-24T12:36:10.273Z,25
2023-05-24T12:37:13.316Z,25.1
2023-05-24T12:38:16.032Z,25
2023-05-24T12:39:17.868Z,25
2023-05-24T12:40:19.858Z,25
2023-05-24T12:41:21.663Z,25
2023-05-24T12:42:23.455Z,25
2023-05-24T12:43:25.462Z,24.9
2023-05-24T12:44:27.284Z,24.9
2023-05-24T12:45:28.984Z,24.9
2023-05-24T12:46:30.971Z,24.9
2023-05-24T12:47:33.501Z,24.9
2023-05-24T12:48:35.350Z,24.9
2023-05-24T12:49:37.303Z,25
2023-05-24T12:50:39.829Z,24.9
2023-05-24T12:51:41.988Z,25
2023-05-24T12:52:43.817Z,25
2023-05-24T12:53:45.480Z,25
2023-05-24T12:54:47.130Z,25
2023-05-24T12:55:48.850Z,24.9
2023-05-24T12:56:55.050Z,24.9
2023-05-24T12:57:59.462Z,24.9
2023-05-24T12:59:01.221Z,24.8
2023-05-24T13:00:03.140Z,24.9
2023-05-24T13:01:05.145Z,24.9
2023-05-24T13:02:07.429Z,24.9
2023-05-24T13:03:09.590Z,24.9
2023-05-24T13:04:11.596Z,24.9
2023-05-24T13:05:13.465Z,24.9
2023-05-24T13:06:15.623Z,24.9
2023-05-24T13:07:17.442Z,24.9
2023-05-24T13:08:19.392Z,24.9
2023-05-24T13:09:22.247Z,24.9
2023-05-24T13:10:23.955Z,24.9
2023-05-24T13:11:25.608Z,24.9
2023-05-24T13:12:27.291Z,24.8
2023-05-24T13:13:29.156Z,24.8
2023-05-24T13:14:31.118Z,24.9
2023-05-24T13:15:33.010Z,24.9
2023-05-24T13:16:34.768Z,24.8
2023-05-24T13:17:37.291Z,24.8
2023-05-24T13:18:39.315Z,24.8
2023-05-24T13:19:41.302Z,24.8
2023-05-24T13:20:44.094Z,24.8
2023-05-24T13:21:47.092Z,24.8
2023-05-24T13:22:49.066Z,24.8
2023-05-24T13:23:50.829Z,24.8
2023-05-24T13:24:53.514Z,24.9
2023-05-24T13:25:55.358Z,24.9
2023-05-24T13:26:57.221Z,24.9
2023-05-24T13:27:59.159Z,24.9
2023-05-24T13:30:47.098Z,24.9
2023-05-24T13:31:49.667Z,24.9
2023-05-24T13:32:51.682Z,24.9
2023-05-24T13:33:53.777Z,24.9
2023-05-24T13:34:55.739Z,25
2023-05-24T13:35:57.650Z,25
2023-05-24T13:36:59.469Z,25.1
2023-05-24T13:38:01.182Z,25.1
2023-05-24T13:39:16.397Z,25.1
2023-05-24T13:48:43.648Z,24.6
2023-05-24T13:49:46.058Z,24.7
2023-05-24T13:50:47.775Z,24.8
2023-05-24T13:51:49.436Z,24.8
2023-05-24T13:52:51.356Z,24.9
2023-05-24T13:53:53.123Z,25
2023-05-24T13:54:55.043Z,25.1
2023-05-24T13:55:56.862Z,25.2
2023-05-24T13:56:58.611Z,25.3
2023-05-24T13:58:00.442Z,25.3
2023-05-24T13:59:02.445Z,25.4
2023-05-24T14:00:04.269Z,25.4
2023-05-24T14:01:05.958Z,25.5
2023-05-24T14:02:08.018Z,25.5
2023-05-24T14:03:10.391Z,25.5
2023-05-24T14:04:12.602Z,25.6